createdAt,value
2018-01-15T00:01:55.754Z,12.30
2018-01-15T00:04:23.793Z,12.30
2018-01-15T00:06:51.868Z,12.30
2018-01-15T00:09:19.886Z,12.30
2018-01-15T00:11:47.878Z,12.30
2018-01-15T00:14:15.878Z,12.30
2018-01-15T00:16:43.922Z,12.30
2018-01-15T00:19:12.006Z,12.30
2018-01-15T00:21:40.038Z,12.20
2018-01-15T00:24:08.126Z,12.20
2018-01-15T00:26:36.210Z,12.20
2018-01-15T00:29:04.304Z,12.20
2018-01-15T00:31:32.310Z,12.20
2018-01-15T00:34:00.311Z,12.20
2018-01-15T00:36:28.379Z,12.20
2018-01-15T00:38:56.381Z,12.20
2018-01-15T00:41:24.383Z,12.20
2018-01-15T00:43:52.386Z,12.20
2018-01-15T00:46:20.414Z,12.10
2018-01-15T00:48:49.177Z,12.10
2018-01-15T00:51:17.162Z,12.10
2018-01-15T00:53:45.945Z,12.10
2018-01-15T00:56:14.745Z,12.10
2018-01-15T00:58:43.558Z,12.10
2018-01-15T01:01:11.553Z,12.00
2018-01-15T01:03:39.539Z,12.10
2018-01-15T01:06:07.572Z,12.10
2018-01-15T01:08:35.562Z,12.00
2018-01-15T01:11:03.589Z,12.00
2018-01-15T01:13:31.554Z,12.00
2018-01-15T01:16:00.374Z,12.00
2018-01-15T01:18:28.378Z,12.00
2018-01-15T01:20:56.383Z,12.00
2018-01-15T01:23:25.161Z,12.00
2018-01-15T01:25:53.894Z,11.90
2018-01-15T01:28:21.953Z,11.90
2018-01-15T01:30:49.981Z,11.90
2018-01-15T01:33:17.999Z,11.90
2018-01-15T01:35:45.986Z,11.90
2018-01-15T01:38:13.958Z,11.90
2018-01-15T01:40:41.969Z,11.90
2018-01-15T01:43:10.837Z,11.90
2018-01-15T01:45:38.838Z,11.80
2018-01-15T01:48:06.873Z,11.90
2018-01-15T01:50:34.866Z,11.80
2018-01-15T01:53:03.640Z,11.80
2018-01-15T01:55:31.702Z,11.80
2018-01-15T01:57:59.743Z,11.80
2018-01-15T02:00:27.762Z,11.80
2018-01-15T02:02:56.558Z,11.80
2018-01-15T02:05:25.364Z,11.80
2018-01-15T02:07:53.362Z,11.80
2018-01-15T02:10:21.350Z,11.80
2018-01-15T02:12:49.666Z,11.80
2018-01-15T02:15:18.434Z,11.70
2018-01-15T02:17:47.225Z,11.70
2018-01-15T02:20:15.297Z,11.70
2018-01-15T02:22:44.135Z,11.70
2018-01-15T02:25:12.231Z,11.70
2018-01-15T02:27:40.337Z,11.70
2018-01-15T02:30:09.170Z,11.70
2018-01-15T02:32:37.161Z,11.60
2018-01-15T02:35:05.218Z,11.60
2018-01-15T02:37:33.265Z,11.60
2018-01-15T02:40:01.302Z,11.60
2018-01-15T02:42:30.098Z,11.60
2018-01-15T02:44:58.871Z,11.60
2018-01-15T02:47:26.906Z,11.50
2018-01-15T02:49:54.931Z,11.60
2018-01-15T02:52:23.670Z,11.50
2018-01-15T02:54:51.657Z,11.50
2018-01-15T02:57:19.685Z,11.50
2018-01-15T02:59:47.683Z,11.50
2018-01-15T03:02:15.697Z,11.50
2018-01-15T03:04:44.463Z,11.50
2018-01-15T03:07:12.458Z,11.40
2018-01-15T03:09:41.290Z,11.40
2018-01-15T03:12:09.309Z,11.40
2018-01-15T03:14:38.114Z,11.40
2018-01-15T03:17:06.158Z,11.40
2018-01-15T03:19:34.944Z,11.30
2018-01-15T03:22:02.957Z,11.30
2018-01-15T03:24:30.998Z,11.30
2018-01-15T03:26:59.769Z,11.30
2018-01-15T03:29:27.782Z,11.30
2018-01-15T03:31:55.789Z,11.20
2018-01-15T03:34:23.786Z,11.30
2018-01-15T03:36:52.607Z,11.20
2018-01-15T03:39:20.632Z,11.20
2018-01-15T03:41:48.638Z,11.20
2018-01-15T03:44:16.649Z,11.20
2018-01-15T03:46:44.673Z,11.20
2018-01-15T03:49:12.695Z,11.10
2018-01-15T03:51:40.705Z,11.10
2018-01-15T03:54:09.500Z,11.10
2018-01-15T03:56:37.482Z,11.10
2018-01-15T03:59:05.482Z,11.10
2018-01-15T04:01:33.520Z,11.10
2018-01-15T04:04:01.530Z,11.10
2018-01-15T04:06:29.519Z,11.00
2018-01-15T04:08:57.561Z,11.00
2018-01-15T04:11:25.580Z,11.00
2018-01-15T04:13:54.373Z,11.00
2018-01-15T04:16:23.198Z,11.00
2018-01-15T04:18:51.249Z,10.90
2018-01-15T04:21:19.280Z,10.90
2018-01-15T04:23:47.288Z,10.90
2018-01-15T04:26:15.321Z,10.90
2018-01-15T04:28:43.310Z,10.90
2018-01-15T04:31:11.377Z,10.90
2018-01-15T04:33:40.146Z,10.90
2018-01-15T04:36:08.238Z,10.80
2018-01-15T04:38:37.046Z,10.80
2018-01-15T04:41:05.098Z,10.80
2018-01-15T04:43:33.864Z,10.80
2018-01-15T04:46:01.911Z,10.80
2018-01-15T04:48:29.932Z,10.80
2018-01-15T04:50:57.978Z,10.80
2018-01-15T04:53:26.001Z,10.80
2018-01-15T04:55:54.000Z,10.80
2018-01-15T04:58:22.054Z,10.70
2018-01-15T05:00:50.066Z,10.70
2018-01-15T05:03:18.838Z,10.70
2018-01-15T05:05:46.850Z,10.70
2018-01-15T05:08:14.872Z,10.70
2018-01-15T05:10:42.896Z,10.70
2018-01-15T05:13:10.910Z,10.60
2018-01-15T05:15:38.960Z,10.60
2018-01-15T05:18:07.002Z,10.60
2018-01-15T05:20:35.037Z,10.60
2018-01-15T05:23:03.054Z,10.60
2018-01-15T05:25:31.079Z,10.60
2018-01-15T05:27:59.863Z,10.50
2018-01-15T05:30:27.873Z,10.50
2018-01-15T05:32:55.896Z,10.50
2018-01-15T05:35:23.918Z,10.50
2018-01-15T05:37:51.931Z,10.50
2018-01-15T05:40:19.923Z,10.50
2018-01-15T05:42:48.753Z,10.50
2018-01-15T05:45:16.797Z,10.50
2018-01-15T05:47:44.790Z,10.50
2018-01-15T05:50:12.794Z,10.50
2018-01-15T05:52:40.851Z,10.50
2018-01-15T05:55:08.885Z,10.50
2018-01-15T05:57:36.949Z,10.50
2018-01-15T06:00:05.096Z,10.40
2018-01-15T06:02:33.127Z,10.40
2018-01-15T06:05:01.142Z,10.40
2018-01-15T06:07:29.922Z,10.40
2018-01-15T06:09:57.966Z,10.40
2018-01-15T06:12:25.978Z,10.30
2018-01-15T06:14:54.773Z,10.30
2018-01-15T06:17:22.786Z,10.30
2018-01-15T06:19:50.834Z,10.30
2018-01-15T06:22:18.864Z,10.30
2018-01-15T06:24:46.869Z,10.30
2018-01-15T06:27:14.923Z,10.30
2018-01-15T06:29:42.937Z,10.30
2018-01-15T06:32:10.966Z,10.20
2018-01-15T06:34:38.998Z,10.20
2018-01-15T06:37:07.027Z,10.20
2018-01-15T06:39:35.047Z,10.20
2018-01-15T06:42:03.098Z,10.20
2018-01-15T06:44:31.146Z,10.20
2018-01-15T06:46:59.147Z,10.20
2018-01-15T06:49:27.216Z,10.10
2018-01-15T06:51:55.266Z,10.10
2018-01-15T06:54:23.305Z,10.10
2018-01-15T06:56:51.410Z,10.10
2018-01-15T06:59:19.521Z,10.10
2018-01-15T07:01:47.542Z,10.10
2018-01-15T07:04:15.526Z,10.10
2018-01-15T07:06:43.600Z,10.10
2018-01-15T07:09:11.613Z,10.10
2018-01-15T07:11:40.387Z,10.10
2018-01-15T07:14:08.383Z,10.10
2018-01-15T07:16:36.409Z,10.10
2018-01-15T07:19:04.746Z,10.00
2018-01-15T07:21:32.878Z,10.00
2018-01-15T07:24:01.674Z,10.00
2018-01-15T07:26:30.435Z,10.10
2018-01-15T07:28:58.454Z,10.00
2018-01-15T07:31:26.498Z,10.00
2018-01-15T07:33:55.291Z,10.00
2018-01-15T07:36:24.047Z,10.00
2018-01-15T07:38:52.050Z,10.00
2018-01-15T07:41:20.834Z,10.00
2018-01-15T07:43:49.614Z,10.00
2018-01-15T07:46:17.653Z,10.00
2018-01-15T07:48:45.668Z,10.00
2018-01-15T07:51:14.458Z,10.00
2018-01-15T07:53:43.257Z,10.00
2018-01-15T07:56:11.262Z,10.00
2018-01-15T07:58:39.285Z,10.00
2018-01-15T08:01:08.051Z,10.00
2018-01-15T08:03:36.024Z,10.00
2018-01-15T08:06:04.037Z,10.00
2018-01-15T08:08:32.053Z,10.00
2018-01-15T08:11:00.076Z,10.00
2018-01-15T08:13:28.090Z,10.00
2018-01-15T08:15:56.111Z,10.00
2018-01-15T08:18:24.129Z,10.00
2018-01-15T08:20:52.165Z,10.00
2018-01-15T08:23:20.171Z,10.00
2018-01-15T08:25:48.205Z,10.00
2018-01-15T08:28:16.620Z,10.10
2018-01-15T08:30:44.662Z,10.10
2018-01-15T08:33:12.686Z,10.10
2018-01-15T08:35:41.494Z,10.10
2018-01-15T08:38:09.511Z,10.10
2018-01-15T08:40:38.275Z,10.10
2018-01-15T08:43:06.293Z,10.10
2018-01-15T08:45:34.335Z,10.10
2018-01-15T08:48:02.358Z,10.20
2018-01-15T08:50:30.354Z,10.20
2018-01-15T08:52:58.342Z,10.20
2018-01-15T08:55:26.390Z,10.20
2018-01-15T08:57:54.386Z,10.20
2018-01-15T09:00:22.390Z,10.20
2018-01-15T09:02:51.170Z,10.20
2018-01-15T09:05:19.173Z,10.20
2018-01-15T09:07:47.176Z,10.30
2018-01-15T09:10:15.214Z,10.30
2018-01-15T09:12:43.218Z,10.30
2018-01-15T09:15:11.217Z,10.30
2018-01-15T09:17:39.264Z,10.30
2018-01-15T09:20:07.293Z,10.30
2018-01-15T09:22:35.323Z,10.30
2018-01-15T09:25:03.338Z,10.30
2018-01-15T09:27:31.396Z,10.30
2018-01-15T09:29:59.410Z,10.30
2018-01-15T09:32:28.177Z,10.40
2018-01-15T09:34:56.183Z,10.40
2018-01-15T09:37:24.205Z,10.40
2018-01-15T09:39:52.203Z,10.40
2018-01-15T09:42:20.226Z,10.40
2018-01-15T09:44:48.258Z,10.40
2018-01-15T09:47:16.291Z,10.40
2018-01-15T09:49:44.294Z,10.50
2018-01-15T09:52:12.329Z,10.50
2018-01-15T09:54:40.330Z,10.50
2018-01-15T09:57:08.431Z,10.50
2018-01-15T09:59:36.546Z,10.50
2018-01-15T10:02:04.577Z,10.50
2018-01-15T10:04:33.338Z,10.50
2018-01-15T10:07:01.339Z,10.50
2018-01-15T10:09:30.112Z,10.60
2018-01-15T10:11:58.154Z,10.50
2018-01-15T10:14:26.153Z,10.50
2018-01-15T10:16:54.161Z,10.60
2018-01-15T10:19:22.163Z,10.60
2018-01-15T10:21:50.933Z,10.60
2018-01-15T10:24:18.965Z,10.60
2018-01-15T10:26:47.725Z,10.60
2018-01-15T10:29:15.758Z,10.60
2018-01-15T10:31:43.791Z,10.60
2018-01-15T10:34:12.567Z,10.60
2018-01-15T10:36:40.570Z,10.60
2018-01-15T10:39:08.582Z,10.60
2018-01-15T10:41:36.581Z,10.60
2018-01-15T10:44:05.383Z,10.70
2018-01-15T10:46:33.432Z,10.70
2018-01-15T10:49:01.434Z,10.70
2018-01-15T10:51:29.467Z,10.70
2018-01-15T10:53:57.491Z,10.70
2018-01-15T10:56:25.551Z,10.70
2018-01-15T10:58:53.565Z,10.70
2018-01-15T11:01:27.476Z,10.70
2018-01-15T11:03:55.483Z,10.70
2018-01-15T11:06:24.270Z,10.80
2018-01-15T11:08:53.036Z,10.80
2018-01-15T11:11:21.065Z,10.80
2018-01-15T11:13:49.083Z,10.80
2018-01-15T11:16:17.886Z,10.80
2018-01-15T11:18:47.462Z,10.80
2018-01-15T11:21:15.470Z,10.80
2018-01-15T11:23:43.470Z,10.80
2018-01-15T11:26:11.525Z,10.80
2018-01-15T11:28:39.519Z,10.80
2018-01-15T11:31:07.515Z,10.90
2018-01-15T11:33:35.516Z,10.90
2018-01-15T11:36:04.350Z,10.90
2018-01-15T11:38:32.357Z,10.90
2018-01-15T11:41:00.386Z,10.90
2018-01-15T11:43:28.428Z,10.90
2018-01-15T11:45:56.445Z,10.90
2018-01-15T11:48:24.423Z,10.90
2018-01-15T11:50:52.407Z,11.00
2018-01-15T11:53:21.239Z,11.00
2018-01-15T11:55:49.255Z,11.00
2018-01-15T11:58:18.830Z,11.00
2018-01-15T12:00:46.851Z,11.00
2018-01-15T12:03:15.646Z,11.00
2018-01-15T12:05:44.415Z,11.00
2018-01-15T12:08:12.437Z,11.00
2018-01-15T12:10:40.435Z,11.00
2018-01-15T12:13:08.466Z,11.00
2018-01-15T12:15:36.490Z,11.10
2018-01-15T12:18:04.532Z,11.10
2018-01-15T12:20:32.577Z,11.10
2018-01-15T12:23:00.581Z,11.10
2018-01-15T12:25:28.617Z,11.10
2018-01-15T12:27:56.628Z,11.10
2018-01-15T12:30:24.681Z,11.10
2018-01-15T12:32:52.726Z,11.20
2018-01-15T12:35:20.719Z,11.20
2018-01-15T12:37:50.473Z,11.20
2018-01-15T12:40:19.257Z,11.20
2018-01-15T12:42:48.034Z,11.30
2018-01-15T12:45:16.034Z,11.20
2018-01-15T12:47:44.042Z,11.20
2018-01-15T12:50:12.037Z,11.30
2018-01-15T12:52:40.118Z,11.30
2018-01-15T12:55:08.190Z,11.30
2018-01-15T12:57:36.212Z,11.30
2018-01-15T13:00:04.352Z,11.30
2018-01-15T13:02:33.129Z,11.40
2018-01-15T13:05:01.924Z,11.40
2018-01-15T13:07:42.696Z,11.40
2018-01-15T13:10:11.489Z,11.40
2018-01-15T13:12:39.560Z,11.40
2018-01-15T13:15:07.604Z,11.40
2018-01-15T13:17:35.619Z,11.50
2018-01-15T13:20:03.733Z,11.40
2018-01-15T13:22:31.758Z,11.50
2018-01-15T13:24:59.839Z,11.50
2018-01-15T13:27:27.903Z,11.50
2018-01-15T13:29:55.945Z,11.50
2018-01-15T13:32:24.728Z,11.50
2018-01-15T13:34:53.544Z,11.60
2018-01-15T13:37:21.556Z,11.50
2018-01-15T13:39:49.619Z,11.60
2018-01-15T13:42:17.647Z,11.60
2018-01-15T13:44:45.673Z,11.60
2018-01-15T13:47:13.727Z,11.60
2018-01-15T13:49:41.794Z,11.60
2018-01-15T13:52:09.824Z,11.60
2018-01-15T13:54:37.888Z,11.60
2018-01-15T13:57:06.732Z,11.60
2018-01-15T13:59:34.832Z,11.60
2018-01-15T14:02:02.886Z,11.60
2018-01-15T14:04:30.939Z,11.60
2018-01-15T14:06:59.010Z,11.60
2018-01-15T14:09:27.037Z,11.70
2018-01-15T14:11:55.855Z,11.60
2018-01-15T14:14:23.893Z,11.60
2018-01-15T14:16:52.700Z,11.60
2018-01-15T14:19:21.154Z,11.60
2018-01-15T14:21:49.984Z,11.70
2018-01-15T14:24:18.021Z,11.60
2018-01-15T14:26:46.828Z,11.70
2018-01-15T14:29:14.891Z,11.60
2018-01-15T14:31:42.914Z,11.60
2018-01-15T14:34:10.945Z,11.60
2018-01-15T14:36:39.059Z,11.60
2018-01-15T14:39:07.924Z,11.60
2018-01-15T14:41:35.967Z,11.60
2018-01-15T14:44:04.093Z,11.60
2018-01-15T14:46:32.136Z,11.60
2018-01-15T14:49:00.210Z,11.60
2018-01-15T14:51:28.296Z,11.60
2018-01-15T14:53:56.347Z,11.60
2018-01-15T14:56:24.357Z,11.60
2018-01-15T14:58:52.376Z,11.60
2018-01-15T15:01:20.495Z,11.60
2018-01-15T15:03:48.542Z,11.60
2018-01-15T15:06:16.600Z,11.60
2018-01-15T15:08:44.629Z,11.60
2018-01-15T15:11:13.472Z,11.60
2018-01-15T15:13:41.484Z,11.60
2018-01-15T15:16:10.272Z,11.60
2018-01-15T15:18:39.056Z,11.60
2018-01-15T15:21:07.872Z,11.60
2018-01-15T15:23:35.940Z,11.50
2018-01-15T15:26:04.111Z,11.60
2018-01-15T15:28:32.159Z,11.50
2018-01-15T15:31:01.346Z,11.50
2018-01-15T15:33:29.393Z,11.50
2018-01-15T15:35:57.429Z,11.50
2018-01-15T15:38:25.526Z,11.50
2018-01-15T15:40:53.567Z,11.50
2018-01-15T15:43:21.655Z,11.50
2018-01-15T15:45:49.705Z,11.50
2018-01-15T15:48:17.797Z,11.50
2018-01-15T15:50:45.873Z,11.50
2018-01-15T15:53:13.943Z,11.50
2018-01-15T15:55:41.976Z,11.50
2018-01-15T15:58:10.789Z,11.40
2018-01-15T16:00:38.849Z,11.40
2018-01-15T16:03:06.868Z,11.40
2018-01-15T16:05:34.933Z,11.40
2018-01-15T16:08:03.142Z,11.40
2018-01-15T16:10:35.372Z,11.40
2018-01-15T16:13:06.716Z,11.40
2018-01-15T16:15:34.768Z,11.40
2018-01-15T16:18:02.795Z,11.40
2018-01-15T16:20:30.855Z,11.40
2018-01-15T16:22:59.087Z,11.30
2018-01-15T16:25:27.138Z,11.30
2018-01-15T16:27:55.203Z,11.30
2018-01-15T16:30:23.248Z,11.30
2018-01-15T16:32:51.311Z,11.30
2018-01-15T16:35:19.399Z,11.30
2018-01-15T16:37:48.231Z,11.30
2018-01-15T16:40:16.271Z,11.30
2018-01-15T16:42:45.107Z,11.30
2018-01-15T16:45:13.134Z,11.30
2018-01-15T16:47:41.169Z,11.30
2018-01-15T16:50:14.823Z,11.30
2018-01-15T16:52:42.876Z,11.30
2018-01-15T16:55:11.718Z,11.30
2018-01-15T16:57:39.788Z,11.20
2018-01-15T17:00:07.881Z,11.20
2018-01-15T17:02:35.929Z,11.20
2018-01-15T17:05:03.989Z,11.20
2018-01-15T17:07:32.039Z,11.20
2018-01-15T17:10:00.148Z,11.20
2018-01-15T17:12:28.203Z,11.20
2018-01-15T17:14:56.312Z,11.20
2018-01-15T17:17:24.373Z,11.20
2018-01-15T17:19:52.435Z,11.20
2018-01-15T17:22:20.474Z,11.20
2018-01-15T17:24:48.527Z,11.10
2018-01-15T17:27:16.568Z,11.10
2018-01-15T17:29:44.623Z,11.10
2018-01-15T17:32:12.692Z,11.10
2018-01-15T17:34:40.721Z,11.10
2018-01-15T17:37:08.781Z,11.10
2018-01-15T17:39:36.777Z,11.10
2018-01-15T17:42:04.824Z,11.10
2018-01-15T17:44:32.847Z,11.10
2018-01-15T17:47:00.880Z,11.10
2018-01-15T17:49:28.937Z,11.10
2018-01-15T17:51:57.016Z,11.10
2018-01-15T17:54:25.103Z,11.10
2018-01-15T17:56:53.150Z,11.10
2018-01-15T17:59:21.157Z,11.00
2018-01-15T18:01:49.244Z,11.00
2018-01-15T18:04:17.271Z,11.10
2018-01-15T18:06:45.363Z,11.00
2018-01-15T18:09:13.403Z,11.00
2018-01-15T18:11:41.425Z,11.00
2018-01-15T18:14:09.469Z,11.00
2018-01-15T18:16:37.595Z,11.00
2018-01-15T18:19:06.432Z,11.00
2018-01-15T18:21:34.524Z,11.00
2018-01-15T18:24:02.545Z,11.00
2018-01-15T18:26:30.607Z,11.00
2018-01-15T18:28:58.680Z,11.00
2018-01-15T18:31:26.757Z,11.00
2018-01-15T18:33:54.820Z,11.00
2018-01-15T18:36:22.845Z,11.00
2018-01-15T18:38:50.911Z,10.90
2018-01-15T18:41:18.956Z,11.00
2018-01-15T18:43:47.091Z,11.00
2018-01-15T18:46:15.900Z,10.90
2018-01-15T18:48:43.930Z,10.90
2018-01-15T18:51:11.961Z,10.90
2018-01-15T18:53:39.996Z,10.90
2018-01-15T18:56:08.804Z,10.90
2018-01-15T18:58:36.829Z,10.90
2018-01-15T19:01:04.921Z,10.90
2018-01-15T19:03:33.732Z,10.90
2018-01-15T19:06:01.753Z,10.90
2018-01-15T19:08:29.826Z,10.90
2018-01-15T19:10:57.841Z,10.90
2018-01-15T19:13:25.874Z,10.90
2018-01-15T19:15:53.913Z,10.90
2018-01-15T19:18:22.757Z,10.90
2018-01-15T19:20:50.793Z,10.90
2018-01-15T19:23:18.828Z,10.90
2018-01-15T19:25:46.847Z,10.80
2018-01-15T19:28:14.980Z,10.80
2018-01-15T19:30:43.118Z,10.80
2018-01-15T19:33:11.786Z,10.80
2018-01-15T19:38:40.815Z,10.80
2018-01-15T19:41:10.665Z,10.80
2018-01-15T19:43:57.504Z,10.80
2018-01-15T19:46:31.200Z,10.80
2018-01-15T19:49:04.857Z,10.80
2018-01-15T19:51:38.531Z,10.80
2018-01-15T19:54:13.096Z,10.80
2018-01-15T19:56:46.801Z,10.80
2018-01-15T19:59:20.482Z,10.80
2018-01-15T20:01:54.142Z,10.80
2018-01-15T20:04:27.702Z,10.70
2018-01-15T20:07:01.352Z,10.70
2018-01-15T20:09:35.045Z,10.80
2018-01-15T20:12:03.135Z,10.80
2018-01-15T20:14:32.004Z,10.70
2018-01-15T20:17:00.043Z,10.70
2018-01-15T20:19:28.111Z,10.70
2018-01-15T20:21:56.194Z,10.70
2018-01-15T20:24:24.255Z,10.70
2018-01-15T20:26:52.300Z,10.70
2018-01-15T20:29:20.328Z,10.70
2018-01-15T20:31:48.388Z,10.70
2018-01-15T20:34:16.448Z,10.70
2018-01-15T20:36:44.569Z,10.70
2018-01-15T20:39:13.408Z,10.70
2018-01-15T20:41:41.475Z,10.70
2018-01-15T20:44:09.501Z,10.60
2018-01-15T20:46:38.321Z,10.60
2018-01-15T20:49:06.346Z,10.60
2018-01-15T20:51:34.404Z,10.60
2018-01-15T20:54:02.476Z,10.60
2018-01-15T20:56:30.532Z,10.60
2018-01-15T20:58:58.624Z,10.60
2018-01-15T21:01:26.707Z,10.60
2018-01-15T21:03:55.541Z,10.60
2018-01-15T21:06:23.608Z,10.50
2018-01-15T21:08:51.678Z,10.60
2018-01-15T21:11:19.727Z,10.50
2018-01-15T21:13:47.763Z,10.50
2018-01-15T21:16:15.832Z,10.50
2018-01-15T21:18:43.889Z,10.50
2018-01-15T21:21:11.921Z,10.50
2018-01-15T21:23:39.964Z,10.50
2018-01-15T21:26:08.801Z,10.50
2018-01-15T21:28:36.844Z,10.50
2018-01-15T21:31:04.916Z,10.50
2018-01-15T21:33:33.004Z,10.50
2018-01-15T21:36:01.028Z,10.50
2018-01-15T21:38:29.828Z,10.40
2018-01-15T21:40:58.660Z,10.40
2018-01-15T21:43:26.689Z,10.40
2018-01-15T21:45:55.515Z,10.40
2018-01-15T21:48:23.545Z,10.40
2018-01-15T21:50:52.415Z,10.40
2018-01-15T21:53:20.502Z,10.40
2018-01-15T21:55:49.272Z,10.40
2018-01-15T21:58:17.299Z,10.40
2018-01-15T22:00:45.356Z,10.40
2018-01-15T22:03:13.423Z,10.40
2018-01-15T22:05:41.488Z,10.40
2018-01-15T22:08:09.555Z,10.40
2018-01-15T22:10:38.363Z,10.40
2018-01-15T22:13:06.349Z,10.40
2018-01-15T22:15:34.388Z,10.40
2018-01-15T22:18:02.448Z,10.40
2018-01-15T22:20:31.273Z,10.30
2018-01-15T22:22:59.281Z,10.30
2018-01-15T22:25:27.352Z,10.30
2018-01-15T22:27:55.384Z,10.30
2018-01-15T22:30:23.427Z,10.40
2018-01-15T22:32:51.441Z,10.40
2018-01-15T22:35:19.499Z,10.30
2018-01-15T22:37:47.532Z,10.30
2018-01-15T22:40:16.351Z,10.30
2018-01-15T22:42:44.420Z,10.30
2018-01-15T22:45:12.446Z,10.30
2018-01-15T22:47:40.515Z,10.30
2018-01-15T22:50:08.548Z,10.30
2018-01-15T22:52:36.601Z,10.30
2018-01-15T22:55:04.641Z,10.30
2018-01-15T22:57:33.471Z,10.30
2018-01-15T23:00:01.561Z,10.30
2018-01-15T23:02:29.620Z,10.30
2018-01-15T23:04:57.660Z,10.30
2018-01-15T23:07:25.664Z,10.30
2018-01-15T23:09:53.737Z,10.30
2018-01-15T23:12:21.772Z,10.30
2018-01-15T23:14:49.793Z,10.30
2018-01-15T23:17:17.837Z,10.30
2018-01-15T23:19:45.904Z,10.30
2018-01-15T23:22:13.960Z,10.30
2018-01-15T23:24:41.981Z,10.30
2018-01-15T23:27:10.028Z,10.30
2018-01-15T23:29:38.128Z,10.30
2018-01-15T23:32:06.190Z,10.30
2018-01-15T23:34:34.225Z,10.30
2018-01-15T23:37:02.312Z,10.30
2018-01-15T23:39:31.104Z,10.30
2018-01-15T23:41:59.141Z,10.30
2018-01-15T23:44:27.171Z,10.30
2018-01-15T23:46:55.188Z,10.30
2018-01-15T23:49:23.235Z,10.30
2018-01-15T23:51:52.044Z,10.30
2018-01-15T23:54:32.036Z,10.30
2018-01-15T23:57:00.095Z,10.30
2018-01-15T23:59:28.132Z,10.30
